This is the latest recevied weather packets stored in our database for station/object N3WMC. If no packets are shown the sender has not sent any weather packets the latest 10 day(s).
| Time | Temp. | Humidity | Pressure | Rain* | Wind** | Luminosity | Snow |
|---|---|---|---|---|---|---|---|
| 1787865882 | 27.78° C | 66% | 1014.3 hPa | 0 mm | - | 84 W/m² | - |
| 1787865577 | 28.89° C | 62% | 1014.4 hPa | 0 mm | - | 88 W/m² | - |
| 1787865272 | 29.44° C | 60% | 1014.4 hPa | 0 mm | - | 245 W/m² | - |
| 1787864968 | 28.89° C | 62% | 1014.4 hPa | 0 mm | - | 272 W/m² | - |
| 1787864664 | 28.33° C | 63% | 1014.5 hPa | 0 mm | - | 230 W/m² | - |
| 1787864357 | 28.89° C | 60% | 1014.2 hPa | 0 mm | - | 294 W/m² | - |
| 1787864057 | 28.89° C | 62% | 1014.6 hPa | 0 mm | - | 101 W/m² | - |
| 1787863755 | 29.44° C | 59% | 1014.5 hPa | 0 mm | - | 289 W/m² | - |
| 1787863454 | 28.89° C | 63% | 1014.7 hPa | 0 mm | - | 321 W/m² | - |
| 1787863151 | 28.89° C | 61% | 1014.6 hPa | 0 mm | - | 326 W/m² | - |
| 1787862847 | 28.89° C | 62% | 1014.6 hPa | 0 mm | - | 335 W/m² | - |
| 1787862546 | 28.89° C | 62% | 1014.4 hPa | 0 mm | - | 355 W/m² | - |
| 1787862241 | 29.44° C | 62% | 1014.5 hPa | 0 mm | - | 139 W/m² | - |
| 1787861936 | 28.33° C | 63% | 1014.6 hPa | 0 mm | - | 377 W/m² | - |
| 1787861631 | 28.33° C | 63% | 1014.8 hPa | 0 mm | - | 402 W/m² | - |
| 1787861329 | 28.89° C | 63% | 1014.8 hPa | 0 mm | - | 176 W/m² | - |
| 1787861024 | 28.89° C | 63% | 1014.8 hPa | 0 mm | - | 393 W/m² | - |
| 1787860723 | 29.44° C | 60% | 1014.7 hPa | 0 mm | - | 413 W/m² | - |
| 1787860419 | 29.44° C | 60% | 1014.8 hPa | 0 mm | - | 422 W/m² | - |
| 1787860118 | 30° C | 61% | 1014.9 hPa | 0 mm | - | 452 W/m² | - |
| 1787859814 | 29.44° C | 63% | 1014.7 hPa | 0 mm | - | 462 W/m² | - |
| 1787859513 | 29.44° C | 62% | 1014.8 hPa | 0 mm | - | 443 W/m² | - |
| 1787859208 | 28.89° C | 64% | 1014.9 hPa | 0 mm | - | 440 W/m² | - |
| 1787858899 | 29.44° C | 62% | 1014.9 hPa | 0 mm | - | 450 W/m² | - |
| 1787858595 | 28.89° C | 64% | 1015.1 hPa | 0 mm | - | 465 W/m² | - |
* Rain latest hour (hover to see other rain measurements)
** Current wind speed in m/s (hover to see current wind gust speed)